Chanute Martin Johnson Airport Chanute US
ICAO: KCNU
IATA: CNU
Category: Medium
Scheduled Services: No

Elevation: 1002 ft
TransAlt. 18000 ft.

Airport Communications:
ASOS:127.075
KANSAS CITY CNTR:132.9
WICHITA RDO:122.35
CTAF/UNICOM:122.7

KCNU Zoom In..

If you have problems with the map follow the link
https://www.worldairports.se/pages/airport.php?
ICAO=KCNU

Runways:

(A) RW 18 length 4255 ft width 75 ft
---- / hdg 182

(B) RW 36 length 4255 ft width 75 ft
---- / hdg 2

Location; KCNU
Day. 20 / Time. 20.52 Zulu
* Altimeter: 29.88
* Temperature: 03° c. 37.4°f.
* Wind from: 240° Speed 07 kn.
Dewpoint: -02° c.
Visibility: 10 Statute Miles.
Clouds: Overcast 2000 ft.

KCNU 202052Z AUTO 24007KT 10SM OVC020 03/M02 A2988 RMK AO2 SLP125 T00331017 53006


Wind From 240°
Speed 07 kn.

 
 
jpsmedia.com for Web Design worldairports.se 2019   terms of use